createdAt,value
2022-09-23T00:01:20.275Z,101418.47
2022-09-23T00:03:49.034Z,101416.53
2022-09-23T00:06:20.514Z,101422.13
2022-09-23T00:08:49.701Z,101415.19
2022-09-23T00:11:25.085Z,101417.13
2022-09-23T00:13:56.928Z,101421.00
2022-09-23T00:16:31.162Z,101414.03
2022-09-23T00:18:58.369Z,101412.56
2022-09-23T00:21:25.337Z,101417.44
2022-09-23T00:23:52.397Z,101411.13
2022-09-23T00:26:22.986Z,101414.81
2022-09-23T00:28:50.727Z,101408.81
2022-09-23T00:31:23.400Z,101402.81
2022-09-23T00:33:58.905Z,101399.53
2022-09-23T00:36:28.125Z,101406.69
2022-09-23T00:38:55.408Z,101405.63
2022-09-23T00:41:22.660Z,101400.53
2022-09-23T00:43:59.492Z,101395.28
2022-09-23T00:46:45.855Z,101404.47
2022-09-23T00:49:27.421Z,101399.06
2022-09-23T00:52:06.708Z,101396.56
2022-09-23T00:54:33.970Z,101395.09
2022-09-23T00:57:01.577Z,101396.34
2022-09-23T00:59:29.138Z,101394.59
2022-09-23T01:02:00.261Z,101388.50
2022-09-23T01:04:30.124Z,101392.19
2022-09-23T01:06:56.955Z,101390.44
2022-09-23T01:09:25.336Z,101392.56
2022-09-23T01:12:18.289Z,101383.69
2022-09-23T01:15:19.673Z,101383.88
2022-09-23T01:18:13.418Z,101384.06
2022-09-23T01:21:16.620Z,101379.72
2022-09-23T01:24:23.681Z,101379.06
2022-09-23T01:27:47.544Z,101380.19
2022-09-23T01:30:39.131Z,101386.56
2022-09-23T01:34:06.151Z,101384.88
2022-09-23T01:36:42.909Z,101389.59
2022-09-23T01:39:25.103Z,101380.81
2022-09-23T01:42:13.452Z,101383.63
2022-09-23T01:44:56.902Z,101370.31
2022-09-23T01:47:37.338Z,101373.19
2022-09-23T01:50:29.632Z,101371.56
2022-09-23T01:53:06.688Z,101378.94
2022-09-23T01:55:41.145Z,101370.06
2022-09-23T01:58:34.116Z,101368.31
2022-09-23T02:01:07.096Z,101367.44
2022-09-23T02:04:08.478Z,101369.28
2022-09-23T02:06:46.508Z,101367.63
2022-09-23T02:09:24.775Z,101359.59
2022-09-23T02:12:00.519Z,101365.22
2022-09-23T02:14:42.445Z,101360.84
2022-09-23T02:17:15.779Z,101353.91
2022-09-23T02:19:51.435Z,101362.00
2022-09-23T02:22:35.403Z,101356.59
2022-09-23T02:25:03.738Z,101357.47
2022-09-23T02:27:51.445Z,101352.84
2022-09-23T02:30:29.550Z,101352.84
2022-09-23T02:33:11.797Z,101349.19
2022-09-23T02:35:55.156Z,101343.03
2022-09-23T02:38:34.398Z,101340.31
2022-09-23T02:41:13.813Z,101343.97
2022-09-23T02:44:10.215Z,101337.78
2022-09-23T02:46:38.177Z,101331.44
2022-09-23T02:49:04.857Z,101331.44
2022-09-23T02:51:36.053Z,101331.53
2022-09-23T02:54:05.440Z,101319.09
2022-09-23T02:56:32.244Z,101327.47
2022-09-23T02:58:59.897Z,101318.59
2022-09-23T03:02:04.568Z,101315.97
2022-09-23T03:04:54.714Z,101316.25
2022-09-23T03:07:33.152Z,101309.19
2022-09-23T03:10:22.893Z,101300.50
2022-09-23T03:13:29.951Z,101309.91
2022-09-23T03:16:15.313Z,101304.13
2022-09-23T03:18:56.667Z,101303.34
2022-09-23T03:21:38.755Z,101300.81
2022-09-23T03:24:10.794Z,101298.19
2022-09-23T03:26:40.304Z,101298.28
2022-09-23T03:29:11.422Z,101295.00
2022-09-23T03:31:41.343Z,101296.94
2022-09-23T03:34:29.273Z,101292.47
2022-09-23T03:37:02.032Z,101291.88
2022-09-23T03:39:40.802Z,101293.78
2022-09-23T03:42:17.076Z,101293.97
2022-09-23T03:44:46.867Z,101292.03
2022-09-23T03:47:16.570Z,101289.25
2022-09-23T03:49:48.398Z,101293.78
2022-09-23T03:52:17.556Z,101292.03
2022-09-23T03:54:44.822Z,101288.41
2022-09-23T03:57:13.347Z,101281.19
2022-09-23T03:59:40.861Z,101281.25
2022-09-23T04:02:08.517Z,101289.47
2022-09-23T04:04:41.071Z,101285.09
2022-09-23T04:07:09.753Z,101280.75
2022-09-23T04:09:37.048Z,101271.91
2022-09-23T04:12:05.804Z,101275.47
2022-09-23T04:14:32.707Z,101276.41
2022-09-23T04:16:59.805Z,101280.94
2022-09-23T04:19:26.573Z,101280.94
2022-09-23T04:21:53.381Z,101284.59
2022-09-23T04:24:20.262Z,101281.09
2022-09-23T04:26:56.636Z,101278.31
2022-09-23T04:29:24.918Z,101281.09
2022-09-23T04:31:53.089Z,101283.91
2022-09-23T04:34:20.677Z,101280.44
2022-09-23T04:36:48.928Z,101278.69
2022-09-23T04:39:17.348Z,101279.75
2022-09-23T04:41:45.845Z,101279.81
2022-09-23T04:44:14.762Z,101269.97
2022-09-23T04:46:47.545Z,101278.06
2022-09-23T04:49:16.043Z,101277.13
2022-09-23T04:51:43.674Z,101273.44
2022-09-23T04:54:14.559Z,101273.44
2022-09-23T04:56:42.186Z,101269.81
2022-09-23T04:59:09.043Z,101271.53
2022-09-23T05:01:36.450Z,101276.59
2022-09-23T05:04:14.109Z,101274.84
2022-09-23T05:06:43.916Z,101269.66
2022-09-23T05:09:17.310Z,101271.38
2022-09-23T05:11:45.444Z,101275.03
2022-09-23T05:14:13.004Z,101273.28
2022-09-23T05:16:40.293Z,101268.75
2022-09-23T05:19:07.402Z,101265.38
2022-09-23T05:21:35.204Z,101274.34
2022-09-23T05:24:02.533Z,101270.50
2022-09-23T05:26:32.102Z,101272.34
2022-09-23T05:29:00.208Z,101275.91
2022-09-23T05:31:30.023Z,101277.38
2022-09-23T05:34:03.324Z,101278.94
2022-09-23T05:36:37.890Z,101278.94
2022-09-23T05:39:07.953Z,101277.38
2022-09-23T05:41:36.136Z,101278.16
2022-09-23T05:44:03.008Z,101274.50
2022-09-23T05:46:31.391Z,101283.38
2022-09-23T05:49:02.708Z,101289.34
2022-09-23T05:51:31.836Z,101290.84
2022-09-23T05:54:00.475Z,101289.63
2022-09-23T05:56:29.216Z,101284.22
2022-09-23T05:59:00.399Z,101288.56
2022-09-23T06:01:35.264Z,101289.41
2022-09-23T06:04:04.719Z,101284.81
2022-09-23T06:06:38.506Z,101285.59
2022-09-23T06:09:08.537Z,101283.47
2022-09-23T06:11:36.512Z,101288.78
2022-09-23T06:14:04.228Z,101287.66
2022-09-23T06:16:35.410Z,101285.63
2022-09-23T06:19:06.430Z,101290.09
2022-09-23T06:21:37.847Z,101283.63
2022-09-23T06:24:06.876Z,101273.72
2022-09-23T06:26:36.405Z,101270.75
2022-09-23T06:29:09.976Z,101271.44
2022-09-23T06:31:37.259Z,101273.97
2022-09-23T06:34:11.564Z,101275.50
2022-09-23T06:36:44.820Z,101282.53
2022-09-23T06:39:15.841Z,101283.22
2022-09-23T06:41:44.065Z,101282.88
2022-09-23T06:44:15.134Z,101282.66
2022-09-23T06:46:42.318Z,101276.22
2022-09-23T06:49:09.542Z,101265.13
2022-09-23T06:51:36.693Z,101268.50
2022-09-23T06:54:03.578Z,101262.84
2022-09-23T06:56:33.596Z,101270.81
2022-09-23T06:59:05.262Z,101273.09
2022-09-23T07:01:32.199Z,101273.69
2022-09-23T07:04:00.617Z,101269.66
2022-09-23T07:06:27.500Z,101271.78
2022-09-23T07:08:54.261Z,101265.31
2022-09-23T07:11:22.607Z,101273.91
2022-09-23T07:13:49.744Z,101275.44
2022-09-23T07:16:16.701Z,101268.09
2022-09-23T07:18:44.288Z,101272.25
2022-09-23T07:21:15.899Z,101273.69
2022-09-23T07:23:50.365Z,101277.72
2022-09-23T07:26:19.285Z,101277.34
2022-09-23T07:28:46.464Z,101275.00
2022-09-23T07:31:28.304Z,101276.34
2022-09-23T07:34:01.169Z,101278.44
2022-09-23T07:36:32.649Z,101278.84
2022-09-23T07:39:03.813Z,101271.69
2022-09-23T07:41:33.039Z,101266.19
2022-09-23T07:44:01.133Z,101274.63
2022-09-23T07:46:32.019Z,101270.47
2022-09-23T07:48:59.268Z,101272.53
2022-09-23T07:51:35.414Z,101270.97
2022-09-23T07:54:03.654Z,101284.31
2022-09-23T07:56:31.585Z,101284.59
2022-09-23T07:59:01.678Z,101274.53
2022-09-23T08:01:31.599Z,101272.59
2022-09-23T08:04:07.771Z,101280.19
2022-09-23T08:06:34.916Z,101284.09
2022-09-23T08:09:02.076Z,101281.50
2022-09-23T08:11:28.992Z,101286.28
2022-09-23T08:13:56.744Z,101282.16
2022-09-23T08:16:23.566Z,101284.31
2022-09-23T08:18:50.573Z,101275.44
2022-09-23T08:21:21.766Z,101279.66
2022-09-23T08:23:49.968Z,101280.41
2022-09-23T08:26:21.430Z,101281.94
2022-09-23T08:28:49.538Z,101288.78
2022-09-23T08:31:16.635Z,101285.72
2022-09-23T08:33:43.549Z,101283.44
2022-09-23T08:36:10.450Z,101282.03
2022-09-23T08:38:37.306Z,101285.91
2022-09-23T08:41:22.681Z,101285.13
2022-09-23T08:44:02.036Z,101282.72
2022-09-23T08:46:37.680Z,101286.81
2022-09-23T08:49:07.613Z,101283.81
2022-09-23T08:51:48.410Z,101288.97
2022-09-23T08:54:18.152Z,101298.50
2022-09-23T08:56:51.295Z,101294.38
2022-09-23T08:59:42.864Z,101289.78
2022-09-23T09:02:19.471Z,101294.25
2022-09-23T09:04:55.047Z,101288.38
2022-09-23T09:07:36.659Z,101282.47
2022-09-23T09:10:08.995Z,101286.22
2022-09-23T09:13:04.132Z,101280.81
2022-09-23T09:15:34.609Z,101281.19
2022-09-23T09:18:07.803Z,101279.38
2022-09-23T09:20:56.954Z,101272.38
2022-09-23T09:23:38.762Z,101274.72
2022-09-23T09:26:11.079Z,101269.34
2022-09-23T09:28:53.107Z,101269.47
2022-09-23T09:31:38.149Z,101266.63
2022-09-23T09:34:12.022Z,101264.88
2022-09-23T09:36:53.940Z,101260.44
2022-09-23T09:39:25.448Z,101263.13
2022-09-23T09:41:53.714Z,101260.03
2022-09-23T09:44:47.727Z,101255.53
2022-09-23T09:48:11.614Z,101248.72
2022-09-23T09:50:52.147Z,101254.78
2022-09-23T09:53:29.332Z,101253.72
2022-09-23T09:56:09.268Z,101253.09
2022-09-23T09:58:54.889Z,101250.59
2022-09-23T10:01:32.762Z,101251.78
2022-09-23T10:04:05.227Z,101243.81
2022-09-23T10:06:36.038Z,101245.38
2022-09-23T10:09:12.209Z,101240.56
2022-09-23T10:11:40.280Z,101242.81
2022-09-23T10:14:20.295Z,101237.84
2022-09-23T10:17:05.614Z,101242.16
2022-09-23T10:19:35.802Z,101238.72
2022-09-23T10:22:16.910Z,101236.06
2022-09-23T10:24:49.635Z,101233.38
2022-09-23T10:27:28.831Z,101238.16
2022-09-23T10:29:58.497Z,101240.94
2022-09-23T10:32:44.958Z,101235.78
2022-09-23T10:35:25.502Z,101244.56
2022-09-23T10:37:58.967Z,101241.28
2022-09-23T10:41:02.458Z,101239.69
2022-09-23T10:44:04.176Z,101244.44
2022-09-23T10:46:45.901Z,101236.13
2022-09-23T10:49:53.263Z,101233.25
2022-09-23T10:52:31.909Z,101230.66
2022-09-23T10:55:33.857Z,101231.84
2022-09-23T10:58:51.331Z,101235.31
2022-09-23T11:01:48.861Z,101228.69
2022-09-23T11:04:40.455Z,101230.72
2022-09-23T11:07:21.162Z,101223.81
2022-09-23T11:10:23.176Z,101226.13
2022-09-23T11:13:08.271Z,101229.56
2022-09-23T11:15:54.140Z,101232.03
2022-09-23T11:19:05.476Z,101226.75
2022-09-23T11:22:15.983Z,101216.66
2022-09-23T11:25:06.764Z,101217.84
2022-09-23T11:27:53.268Z,101212.06
2022-09-23T11:30:21.261Z,101216.66
2022-09-23T11:33:13.886Z,101204.56
2022-09-23T11:36:12.465Z,101209.41
2022-09-23T11:38:49.963Z,101207.44
2022-09-23T11:41:30.325Z,101205.41
2022-09-23T11:44:23.470Z,101200.66
2022-09-23T11:47:08.037Z,101205.09
2022-09-23T11:50:00.126Z,101204.19
2022-09-23T11:52:36.226Z,101196.41
2022-09-23T11:55:25.687Z,101195.84
2022-09-23T11:57:59.935Z,101193.34
2022-09-23T12:00:38.349Z,101186.41
2022-09-23T12:03:37.623Z,101190.28
2022-09-23T12:06:19.769Z,101184.59
2022-09-23T12:08:50.001Z,101183.31
2022-09-23T12:11:36.429Z,101182.72
2022-09-23T12:14:12.356Z,101178.66
2022-09-23T12:16:52.581Z,101174.91
2022-09-23T12:19:37.539Z,101178.34
2022-09-23T12:22:28.329Z,101174.28
2022-09-23T12:25:22.573Z,101175.69
2022-09-23T12:27:55.249Z,101169.94
2022-09-23T12:30:30.545Z,101172.25
2022-09-23T12:33:34.086Z,101168.03
2022-09-23T12:36:12.178Z,101173.94
2022-09-23T12:38:49.539Z,101170.91
2022-09-23T12:41:37.620Z,101169.50
2022-09-23T12:44:11.067Z,101169.06
2022-09-23T12:46:39.825Z,101159.09
2022-09-23T12:49:29.261Z,101162.22
2022-09-23T12:52:17.293Z,101153.31
2022-09-23T12:54:50.512Z,101149.88
2022-09-23T12:57:35.356Z,101153.31
2022-09-23T13:00:12.684Z,101154.72
2022-09-23T13:03:08.534Z,101151.53
2022-09-23T13:06:11.505Z,101149.22
2022-09-23T13:08:42.464Z,101146.63
2022-09-23T13:11:31.624Z,101145.78
2022-09-23T13:14:05.228Z,101152.41
2022-09-23T13:16:38.158Z,101151.00
2022-09-23T13:19:27.755Z,101148.88
2022-09-23T13:21:54.510Z,101137.19
2022-09-23T13:24:31.099Z,101140.66
2022-09-23T13:27:23.720Z,101135.19
2022-09-23T13:30:13.940Z,101136.34
2022-09-23T13:33:16.627Z,101140.13
2022-09-23T13:35:52.552Z,101142.38
2022-09-23T13:38:31.963Z,101132.13
2022-09-23T13:41:05.399Z,101141.44
2022-09-23T13:43:49.636Z,101135.19
2022-09-23T13:46:21.790Z,101133.56
2022-09-23T13:48:56.384Z,101128.34
2022-09-23T13:51:24.785Z,101126.59
2022-09-23T13:53:55.342Z,101128.97
2022-09-23T13:56:23.154Z,101121.84
2022-09-23T13:58:49.972Z,101120.59
2022-09-23T14:01:34.626Z,101119.47
2022-09-23T14:04:02.708Z,101128.88
2022-09-23T14:06:41.077Z,101120.56
2022-09-23T14:09:07.877Z,101118.72
2022-09-23T14:11:35.542Z,101114.88
2022-09-23T14:14:07.426Z,101117.53
2022-09-23T14:16:40.710Z,101112.34
2022-09-23T14:19:16.756Z,101116.41
2022-09-23T14:21:43.789Z,101115.28
2022-09-23T14:24:10.512Z,101103.94
2022-09-23T14:26:40.325Z,101112.13
2022-09-23T14:29:18.178Z,101106.66
2022-09-23T14:32:04.191Z,101100.63
2022-09-23T14:35:19.327Z,101098.94
2022-09-23T14:38:13.207Z,101096.34
2022-09-23T14:41:15.450Z,101085.00
2022-09-23T14:43:55.917Z,101089.75
2022-09-23T14:46:25.769Z,101087.78
2022-09-23T14:49:05.929Z,101082.03
2022-09-23T14:51:43.587Z,101084.34
2022-09-23T14:54:45.087Z,101082.63
2022-09-23T14:57:22.148Z,101080.75
2022-09-23T15:00:09.666Z,101080.63
2022-09-23T15:02:40.264Z,101074.13
2022-09-23T15:05:22.986Z,101073.41
2022-09-23T15:08:00.706Z,101074.44
2022-09-23T15:10:38.049Z,101071.72
2022-09-23T15:13:15.421Z,101073.72
2022-09-23T15:15:43.461Z,101074.03
2022-09-23T15:18:23.466Z,101072.84
2022-09-23T15:20:54.243Z,101072.00
2022-09-23T15:23:50.185Z,101064.81
2022-09-23T15:26:24.434Z,101068.81
2022-09-23T15:28:55.368Z,101059.91
2022-09-23T15:31:27.301Z,101065.38
2022-09-23T15:33:55.969Z,101058.50
2022-09-23T15:36:28.708Z,101056.75
2022-09-23T15:39:02.278Z,101052.47
2022-09-23T15:41:30.130Z,101053.63
2022-09-23T15:43:57.137Z,101053.06
2022-09-23T15:46:28.229Z,101049.06
2022-09-23T15:49:02.861Z,101054.78
2022-09-23T15:51:29.655Z,101061.84
2022-09-23T15:53:56.962Z,101067.16
2022-09-23T15:56:24.902Z,101066.06
2022-09-23T15:58:51.657Z,101072.94
2022-09-23T16:01:28.675Z,101070.66
2022-09-23T16:03:56.057Z,101071.81
2022-09-23T16:06:24.328Z,101063.75
2022-09-23T16:08:52.260Z,101058.31
2022-09-23T16:11:24.572Z,101062.31
2022-09-23T16:13:52.175Z,101064.31
2022-09-23T16:16:22.623Z,101055.72
2022-09-23T16:18:51.401Z,101061.47
2022-09-23T16:21:22.188Z,101060.88
2022-09-23T16:23:51.401Z,101064.03
2022-09-23T16:26:29.607Z,101060.91
2022-09-23T16:28:58.127Z,101061.16
2022-09-23T16:31:29.578Z,101069.75
2022-09-23T16:33:57.786Z,101055.41
2022-09-23T16:36:31.065Z,101051.94
2022-09-23T16:39:04.549Z,101052.06
2022-09-23T16:41:31.940Z,101055.09
2022-09-23T16:44:00.909Z,101042.19
2022-09-23T16:46:29.483Z,101048.50
2022-09-23T16:48:57.530Z,101039.31
2022-09-23T16:51:31.654Z,101045.91
2022-09-23T16:53:59.982Z,101046.16
2022-09-23T16:56:29.331Z,101042.44
2022-09-23T16:58:57.065Z,101049.91
2022-09-23T17:01:46.405Z,101047.19
2022-09-23T17:04:15.151Z,101048.19
2022-09-23T17:06:50.977Z,101046.75
2022-09-23T17:09:27.945Z,101050.91
2022-09-23T17:12:27.765Z,101053.06
2022-09-23T17:14:55.143Z,101050.00
2022-09-23T17:17:22.234Z,101055.31
2022-09-23T17:19:49.092Z,101059.72
2022-09-23T17:22:15.873Z,101057.84
2022-09-23T17:24:42.848Z,101053.34
2022-09-23T17:27:09.727Z,101053.19
2022-09-23T17:29:36.501Z,101050.16
2022-09-23T17:32:04.914Z,101046.09
2022-09-23T17:34:33.406Z,101047.38
2022-09-23T17:37:00.558Z,101050.50
2022-09-23T17:39:27.381Z,101049.78
2022-09-23T17:41:57.256Z,101052.75
2022-09-23T17:44:24.425Z,101047.63
2022-09-23T17:46:52.095Z,101057.50
2022-09-23T17:49:19.036Z,101055.91
2022-09-23T17:51:45.913Z,101044.28
2022-09-23T17:54:14.991Z,101050.69
2022-09-23T17:56:42.673Z,101041.94
2022-09-23T17:59:14.828Z,101042.22
2022-09-23T18:01:41.663Z,101042.34
2022-09-23T18:04:08.525Z,101039.75
2022-09-23T18:06:37.556Z,101040.75
2022-09-23T18:09:07.361Z,101040.91
2022-09-23T18:11:52.464Z,101045.47
2022-09-23T18:14:23.230Z,101042.75
2022-09-23T18:16:53.638Z,101038.31
2022-09-23T18:19:24.385Z,101037.44
2022-09-23T18:21:57.182Z,101038.31
2022-09-23T18:24:33.482Z,101041.03
2022-09-23T18:27:01.765Z,101045.75
2022-09-23T18:29:28.673Z,101040.31
2022-09-23T18:31:55.961Z,101043.75
2022-09-23T18:34:23.569Z,101036.56
2022-09-23T18:36:50.492Z,101043.88
2022-09-23T18:39:17.790Z,101045.75
2022-09-23T18:41:44.664Z,101050.31
2022-09-23T18:44:11.573Z,101047.47
2022-09-23T18:46:38.441Z,101049.19
2022-09-23T18:49:23.841Z,101049.34
2022-09-23T18:51:55.482Z,101048.72
2022-09-23T18:54:25.165Z,101042.81
2022-09-23T18:56:52.795Z,101049.66
2022-09-23T18:59:25.098Z,101059.09
2022-09-23T19:01:55.366Z,101063.94
2022-09-23T19:04:24.985Z,101059.91
2022-09-23T19:06:53.613Z,101064.59
2022-09-23T19:09:20.651Z,101060.16
2022-09-23T19:11:52.250Z,101053.84
2022-09-23T19:14:19.897Z,101057.44
2022-09-23T19:16:49.009Z,101063.59
2022-09-23T19:19:16.155Z,101063.59
2022-09-23T19:21:43.201Z,101061.00
2022-09-23T19:24:15.696Z,101055.84
2022-09-23T19:26:43.967Z,101062.53
2022-09-23T19:29:17.384Z,101053.16
2022-09-23T19:31:44.470Z,101063.84
2022-09-23T19:34:24.651Z,101061.91
2022-09-23T19:36:52.789Z,101062.69
2022-09-23T19:39:23.002Z,101065.16
2022-09-23T19:41:52.223Z,101065.06
2022-09-23T19:44:20.012Z,101055.81
2022-09-23T19:46:53.462Z,101060.00
2022-09-23T19:49:24.534Z,101062.50
2022-09-23T19:51:52.945Z,101061.03
2022-09-23T19:54:20.855Z,101064.97
2022-09-23T19:56:49.920Z,101061.81
2022-09-23T19:59:19.075Z,101056.84
2022-09-23T20:01:48.488Z,101057.38
2022-09-23T20:04:17.021Z,101055.28
2022-09-23T20:06:45.860Z,101058.34
2022-09-23T20:09:12.829Z,101053.41
2022-09-23T20:11:42.834Z,101043.81
2022-09-23T20:14:11.841Z,101043.31
2022-09-23T20:16:38.860Z,101042.81
2022-09-23T20:19:06.180Z,101043.03
2022-09-23T20:21:34.243Z,101042.31
2022-09-23T20:24:02.144Z,101031.44
2022-09-23T20:26:47.511Z,101042.31
2022-09-23T20:29:14.594Z,101028.00
2022-09-23T20:31:41.765Z,101033.53
2022-09-23T20:34:10.410Z,101029.97
2022-09-23T20:36:40.895Z,101023.81
2022-09-23T20:39:09.610Z,101021.81
2022-09-23T20:41:39.276Z,101022.78
2022-09-23T20:44:14.218Z,101015.38
2022-09-23T20:46:48.299Z,101017.13
2022-09-23T20:49:18.382Z,101017.13
2022-09-23T20:51:47.682Z,101008.00
2022-09-23T20:54:15.013Z,101002.59
2022-09-23T20:56:42.032Z,101006.28
2022-09-23T20:59:10.272Z,101011.59
2022-09-23T21:01:37.306Z,101013.44
2022-09-23T21:04:05.829Z,101007.25
2022-09-23T21:06:37.817Z,101008.13
2022-09-23T21:09:06.749Z,101015.38
2022-09-23T21:11:34.156Z,101013.56
2022-09-23T21:14:01.483Z,101008.25
2022-09-23T21:16:29.170Z,101011.09
2022-09-23T21:18:57.736Z,101006.50
2022-09-23T21:21:24.426Z,101006.50
2022-09-23T21:23:52.073Z,101009.22
2022-09-23T21:26:24.769Z,101006.50
2022-09-23T21:28:57.776Z,101011.94
2022-09-23T21:31:33.684Z,101003.78
2022-09-23T21:34:10.753Z,101009.22
2022-09-23T21:36:42.753Z,101009.38
2022-09-23T21:39:10.975Z,101009.50
2022-09-23T21:41:39.181Z,101005.03
2022-09-23T21:44:08.337Z,101001.59
2022-09-23T21:46:37.018Z,101001.59
2022-09-23T21:49:05.055Z,101005.03
2022-09-23T21:51:40.841Z,100999.59
2022-09-23T21:54:15.593Z,101001.59
2022-09-23T21:56:44.263Z,101000.97
2022-09-23T21:59:11.307Z,101008.25
2022-09-23T22:01:44.391Z,101014.66
2022-09-23T22:04:18.764Z,101017.47
2022-09-23T22:06:46.249Z,101011.31
2022-09-23T22:09:18.086Z,101009.72
2022-09-23T22:12:04.508Z,101009.97
2022-09-23T22:14:32.242Z,101006.63
2022-09-23T22:17:02.693Z,101003.28
2022-09-23T22:19:40.209Z,101009.94
2022-09-23T22:22:13.602Z,101010.19
2022-09-23T22:24:42.355Z,101006.84
2022-09-23T22:27:11.394Z,101005.25
2022-09-23T22:29:56.776Z,101007.34
2022-09-23T22:32:42.858Z,101001.38
2022-09-23T22:35:13.440Z,101008.03
2022-09-23T22:37:40.268Z,101009.16
2022-09-23T22:40:16.647Z,101009.38
2022-09-23T22:42:44.103Z,101002.22
2022-09-23T22:45:12.099Z,101000.72
2022-09-23T22:47:44.032Z,100997.28
2022-09-23T22:50:13.875Z,101004.41
2022-09-23T22:52:41.120Z,101000.09
2022-09-23T22:55:08.801Z,100991.09
2022-09-23T22:57:36.645Z,100983.19
2022-09-23T23:00:06.452Z,100990.59
2022-09-23T23:02:33.340Z,100979.00
2022-09-23T23:05:00.458Z,100988.09
2022-09-23T23:07:27.238Z,100977.25
2022-09-23T23:09:54.034Z,100973.69
2022-09-23T23:12:21.604Z,100979.22
2022-09-23T23:14:49.614Z,100973.81
2022-09-23T23:17:18.592Z,100969.38
2022-09-23T23:19:45.437Z,100969.38
2022-09-23T23:22:12.239Z,100965.94
2022-09-23T23:24:39.112Z,100970.59
2022-09-23T23:27:05.909Z,100966.16
2022-09-23T23:29:32.735Z,100970.59
2022-09-23T23:31:59.717Z,100970.72
2022-09-23T23:34:26.532Z,100971.59
2022-09-23T23:36:56.870Z,100964.44
2022-09-23T23:39:25.689Z,100962.47
2022-09-23T23:41:57.957Z,100956.19
2022-09-23T23:44:26.388Z,100964.31
2022-09-23T23:46:54.885Z,100957.03
2022-09-23T23:49:22.518Z,100959.00
2022-09-23T23:51:49.973Z,100950.97
2022-09-23T23:54:16.916Z,100952.72
2022-09-23T23:56:44.244Z,100951.88
2022-09-23T23:59:11.299Z,100943.00
